Time;durP1;ratioP1;P1;durP2;ratioP2;P2;SDS_P1;SDS_P2;PMS_P1;PMS_P2;Temp;Humidity;BMP_temperature;BMP_pressure;BME280_temperature;BME280_humidity;BME280_pressure;Samples;Min_cycle;Max_cycle;Signal;HPM_P1;HPM_P2
2021/01/01 00:00:14;;;;;;;;;0.50;0.50;19.00;74.60;;;17.52;58.70;101985.97;5093041;28;8807;-62
2021/01/01 00:02:41;;;;;;;;;1.00;0.00;18.90;74.50;;;17.51;59.04;101979.78;5093473;28;8806;-62
2021/01/01 00:05:18;;;;;;;;;0.75;0.75;18.90;74.60;;;17.50;58.24;101986.13;5091565;28;8768;-62
2021/01/01 00:07:45;;;;;;;;;0.75;0.00;18.90;74.60;;;17.48;56.72;101981.84;5091535;28;8850;-62
2021/01/01 00:10:14;;;;;;;;;0.00;0.00;18.90;74.70;;;17.47;58.12;101983.66;5094875;28;8807;-62
2021/01/01 00:12:41;;;;;;;;;1.25;0.50;19.00;76.10;;;17.48;57.37;101985.38;5092409;28;8768;-62
2021/01/01 00:15:09;;;;;;;;;0.00;0.00;19.10;75.20;;;17.57;58.13;101981.97;5090883;28;8816;-62
2021/01/01 00:17:36;;;;;;;;;0.00;0.00;18.80;75.70;;;17.70;58.30;101989.91;5093068;28;8870;-62
2021/01/01 00:20:07;;;;;;;;;0.00;0.00;19.30;76.10;;;17.81;58.87;101981.13;5092316;28;8866;-62
2021/01/01 00:22:34;;;;;;;;;1.00;0.00;19.40;76.10;;;17.93;60.14;101988.16;5091172;28;8934;-62
2021/01/01 00:25:01;;;;;;;;;0.50;0.50;19.70;76.60;;;18.07;60.18;101987.09;5093941;28;8784;-62
2021/01/01 00:27:31;;;;;;;;;0.00;0.00;19.80;76.60;;;18.21;59.26;101996.69;5098763;28;8804;-61
2021/01/01 00:29:58;;;;;;;;;0.00;0.00;20.20;76.90;;;18.32;59.35;101990.47;5096059;28;8822;-62
2021/01/01 00:32:26;;;;;;;;;0.00;0.00;20.20;76.30;;;18.35;60.43;101979.56;5093735;28;8800;-62
2021/01/01 00:34:53;;;;;;;;;0.00;0.00;20.20;76.60;;;18.32;58.65;101979.78;5092861;28;9504;-62
2021/01/01 00:37:20;;;;;;;;;0.00;0.00;20.00;76.10;;;18.29;58.30;101980.88;5090590;28;8776;-61
2021/01/01 00:39:47;;;;;;;;;1.00;0.00;20.00;76.10;;;18.25;58.45;101984.78;5093481;28;8845;-62
2021/01/01 00:42:14;;;;;;;;;1.00;0.00;19.80;76.30;;;18.22;59.08;101985.03;5089956;28;8782;-62
2021/01/01 00:44:41;;;;;;;;;0.00;0.00;19.70;76.70;;;18.17;59.11;101976.53;5087640;28;8874;-62
2021/01/01 00:47:12;;;;;;;;;0.00;0.00;19.70;77.20;;;18.22;59.80;101974.34;5090572;28;8830;-61
2021/01/01 00:49:39;;;;;;;;;0.00;0.00;19.70;77.80;;;18.21;59.33;101967.25;5089088;28;9590;-62
2021/01/01 00:52:06;;;;;;;;;0.50;0.00;19.80;77.50;;;18.22;59.01;101959.13;5096347;28;9478;-62
2021/01/01 00:54:33;;;;;;;;;0.00;0.00;19.70;77.00;;;18.17;59.15;101950.63;5089896;28;8807;-62
2021/01/01 00:57:00;;;;;;;;;0.00;0.00;19.80;77.20;;;18.16;58.76;101948.91;5094904;28;8772;-62
2021/01/01 00:59:28;;;;;;;;;0.00;0.00;19.50;77.30;;;18.15;59.53;101943.69;5095038;28;8823;-62
2021/01/01 01:01:55;;;;;;;;;0.50;0.00;19.70;77.80;;;18.17;59.48;101939.91;5097107;28;8780;-62
2021/01/01 01:04:22;;;;;;;;;0.00;0.00;19.60;77.60;;;18.22;59.85;101934.22;5087820;28;8788;-62
2021/01/01 01:06:49;;;;;;;;;0.00;0.00;19.90;77.50;;;18.20;59.40;101942.34;5074914;28;9536;-62
2021/01/01 01:09:16;;;;;;;;;0.25;0.00;19.70;77.10;;;18.19;59.19;101943.34;5094903;28;8846;-62
2021/01/01 01:11:43;;;;;;;;;0.00;0.00;19.80;77.40;;;18.25;59.67;101950.00;5083557;28;9504;-61
2021/01/01 01:14:10;;;;;;;;;0.00;0.00;19.70;77.20;;;18.34;59.29;101943.94;5082563;28;8812;-62
2021/01/01 01:16:36;;;;;;;;;0.20;0.00;20.00;77.20;;;18.34;59.65;101940.38;5051870;28;8798;-62
2021/01/01 01:19:03;;;;;;;;;0.00;0.00;20.00;76.50;;;18.32;58.30;101940.53;5090599;28;8819;-62
2021/01/01 01:21:30;;;;;;;;;0.00;0.00;19.90;76.10;;;18.31;58.16;101945.97;5067540;28;8837;-61
2021/01/01 01:23:58;;;;;;;;;0.00;0.00;19.70;76.30;;;18.34;59.22;101943.94;5087685;28;8783;-60
2021/01/01 01:26:25;;;;;;;;;0.00;0.00;19.80;77.50;;;18.42;59.33;101944.16;5086759;28;8863;-64
2021/01/01 01:28:52;;;;;;;;;0.50;0.50;20.00;77.40;;;18.50;60.09;101943.53;5083257;28;8950;-63
2021/01/01 01:31:19;;;;;;;;;0.75;0.00;20.10;77.80;;;18.52;61.32;101943.38;5089025;28;9601;-63
2021/01/01 01:33:46;;;;;;;;;1.00;1.00;20.30;77.60;;;18.53;61.74;101945.09;5080013;28;8799;-66
2021/01/01 01:36:14;;;;;;;;;3.00;1.50;20.00;77.60;;;18.58;63.17;101942.91;5084612;28;8790;-61
2021/01/01 01:38:41;;;;;;;;;5.50;3.50;20.20;79.70;;;18.60;62.19;101938.28;5087905;28;8823;-62
2021/01/01 01:41:07;;;;;;;;;2.25;2.00;20.20;80.20;;;18.60;62.50;101936.47;5085528;28;9643;-60
2021/01/01 01:43:34;;;;;;;;;1.75;1.00;20.10;80.50;;;18.63;62.36;101938.03;5086010;28;8882;-62
2021/01/01 01:46:02;;;;;;;;;1.75;0.00;19.80;80.70;;;18.70;61.87;101928.53;5083383;28;9619;-62
2021/01/01 01:48:33;;;;;;;;;2.25;1.75;20.10;80.30;;;18.73;61.79;101930.94;5093757;28;8784;-61
2021/01/01 01:51:01;;;;;;;;;0.00;0.00;20.30;79.60;;;18.75;62.13;101930.81;5092532;28;8784;-62
2021/01/01 01:53:37;;;;;;;;;0.00;0.00;20.30;79.40;;;18.75;61.03;101922.78;5093666;28;8784;-61
2021/01/01 01:56:06;;;;;;;;;2.00;1.00;20.30;79.70;;;18.77;61.31;101936.91;5091762;28;8821;-61
2021/01/01 01:58:34;;;;;;;;;0.80;0.60;20.10;79.30;;;18.78;60.90;101930.59;5073933;28;9570;-61
2021/01/01 02:01:00;;;;;;;;;2.00;1.00;20.40;79.80;;;18.76;60.82;101936.06;5074937;28;8903;-62
2021/01/01 02:03:32;;;;;;;;;1.00;1.00;20.10;79.90;;;18.79;60.50;101933.13;5090805;28;8796;-62
2021/01/01 02:06:01;;;;;;;;;0.00;0.00;20.20;79.30;;;18.88;60.43;101923.50;5091533;28;8795;-62
2021/01/01 02:08:28;;;;;;;;;1.00;1.00;20.40;78.90;;;18.97;59.87;101917.38;5093248;28;8772;-62
2021/01/01 02:10:58;;;;;;;;;1.00;0.00;20.60;78.20;;;19.12;59.21;101928.63;5076488;28;8815;-61
2021/01/01 02:13:26;;;;;;;;;0.00;0.00;20.70;77.40;;;19.17;59.55;101929.09;5073105;28;8918;-61
2021/01/01 02:15:54;;;;;;;;;0.00;0.00;20.80;76.70;;;19.19;60.88;101931.66;5086544;28;8787;-62
2021/01/01 02:18:40;;;;;;;;;0.80;0.80;20.90;77.30;;;19.15;59.25;101928.34;5093651;28;9548;-62
2021/01/01 02:21:08;;;;;;;;;0.00;0.00;20.70;77.40;;;19.15;58.81;101927.50;5091644;28;8901;-60
2021/01/01 02:23:36;;;;;;;;;1.00;1.00;20.60;77.90;;;19.16;59.14;101934.56;5101402;28;8820;-60
2021/01/01 02:26:03;;;;;;;;;1.40;0.00;20.60;78.00;;;19.21;59.22;101930.53;5095717;28;9565;-60
2021/01/01 02:28:30;;;;;;;;;0.00;0.00;20.70;78.20;;;19.25;58.83;101939.16;5093899;28;8817;-59
2021/01/01 02:30:57;;;;;;;;;0.50;0.50;20.90;76.80;;;19.26;58.66;101933.69;5089847;28;8801;-60
2021/01/01 02:33:24;;;;;;;;;0.00;0.00;20.80;76.70;;;19.26;59.07;101935.50;5094487;28;8788;-59
2021/01/01 02:35:51;;;;;;;;;0.50;0.50;20.80;77.60;;;19.26;58.87;101932.84;5100385;28;8815;-59
2021/01/01 02:38:19;;;;;;;;;1.20;0.20;20.70;77.50;;;19.36;58.79;101938.25;5091754;28;8808;-59
2021/01/01 02:40:46;;;;;;;;;0.20;0.20;20.80;77.10;;;19.38;58.90;101938.97;5106560;28;8827;-59
2021/01/01 02:43:12;;;;;;;;;0.60;0.60;20.80;76.20;;;19.38;58.50;101934.44;5111653;28;8822;-59
2021/01/01 02:45:39;;;;;;;;;1.00;0.60;20.90;76.10;;;19.38;57.64;101936.28;5104631;28;8788;-59
2021/01/01 02:48:18;;;;;;;;;1.00;1.00;21.10;76.30;;;19.40;58.14;101932.50;5100442;28;8818;-61
2021/01/01 02:50:46;;;;;;;;;1.00;1.00;20.70;76.70;;;19.46;57.61;101939.16;5093157;28;8812;-61
2021/01/01 02:53:13;;;;;;;;;1.20;1.20;20.90;76.30;;;19.49;57.59;101938.91;5081997;28;8816;-61
2021/01/01 02:55:40;;;;;;;;;1.00;1.00;21.10;75.80;;;19.51;57.41;101947.66;5097133;28;8925;-60
2021/01/01 02:58:08;;;;;;;;;1.00;1.00;21.10;75.70;;;19.50;58.08;101954.84;5102596;28;8796;-61
2021/01/01 03:00:39;;;;;;;;;0.00;0.00;21.00;75.60;;;19.48;57.59;101950.59;5109769;28;8939;-60
2021/01/01 03:03:06;;;;;;;;;1.00;1.00;21.10;76.90;;;19.50;57.70;101948.63;5095780;28;8820;-59
2021/01/01 03:05:34;;;;;;;;;1.40;1.00;21.00;76.00;;;19.58;58.22;101945.31;5109997;28;8812;-60
2021/01/01 03:08:00;;;;;;;;;1.00;1.00;21.10;76.40;;;19.61;58.66;101953.06;5100789;28;8774;-60
2021/01/01 03:10:27;;;;;;;;;0.60;0.00;21.00;75.10;;;19.60;57.36;101946.03;5099229;28;8815;-60
2021/01/01 03:12:54;;;;;;;;;2.80;1.00;21.20;75.10;;;19.60;57.92;101946.03;5103750;28;8824;-60
2021/01/01 03:15:21;;;;;;;;;1.00;1.00;21.10;75.10;;;19.62;56.33;101944.91;5095728;28;8803;-61
2021/01/01 03:17:48;;;;;;;;;1.20;1.20;21.10;75.50;;;19.65;56.37;101938.44;5106582;28;8824;-61
2021/01/01 03:20:15;;;;;;;;;2.00;1.00;21.10;75.40;;;19.72;56.00;101937.81;5098440;28;8830;-60
2021/01/01 03:22:42;;;;;;;;;1.00;1.00;21.20;75.40;;;19.72;57.14;101940.50;5099200;28;8821;-60
2021/01/01 03:25:10;;;;;;;;;2.40;2.40;21.20;74.80;;;19.71;55.56;101937.94;5108723;28;8822;-61
2021/01/01 03:27:37;;;;;;;;;2.00;2.00;21.00;74.70;;;19.70;55.47;101937.09;5096279;28;8806;-61
2021/01/01 03:30:10;;;;;;;;;2.00;1.60;21.30;74.50;;;19.70;55.62;101931.72;5101149;28;8902;-65
2021/01/01 03:32:37;;;;;;;;;0.00;0.00;21.10;74.90;;;19.76;56.00;101929.50;5103459;28;8778;-62
2021/01/01 03:35:09;;;;;;;;;1.00;1.00;21.20;75.10;;;19.78;57.26;101932.91;5083260;28;8784;-63
2021/01/01 03:37:36;;;;;;;;;1.00;1.00;21.40;74.30;;;19.80;54.75;101931.78;5095203;28;8903;-62
2021/01/01 03:40:05;;;;;;;;;0.80;0.80;21.30;74.10;;;19.79;54.49;101929.22;5114654;28;8840;-63
2021/01/01 03:42:32;;;;;;;;;0.00;0.00;21.20;73.90;;;19.79;55.96;101930.06;5107741;28;8787;-63
2021/01/01 03:44:59;;;;;;;;;1.40;1.40;21.10;74.10;;;19.76;55.87;101930.34;5091757;28;8917;-63
2021/01/01 03:47:26;;;;;;;;;3.40;2.00;21.30;74.70;;;19.77;56.22;101928.50;5103501;28;8812;-62
2021/01/01 03:49:53;;;;;;;;;2.00;1.00;21.30;75.30;;;19.80;56.57;101931.78;5091100;28;8825;-62
2021/01/01 03:52:20;;;;;;;;;0.00;0.00;21.40;74.40;;;19.81;57.00;101938.81;5095194;28;8780;-62
2021/01/01 03:54:46;;;;;;;;;1.40;1.40;21.20;73.70;;;19.82;54.57;101926.25;5095026;28;8775;-62
2021/01/01 03:57:13;;;;;;;;;2.00;2.00;21.10;73.60;;;19.81;53.91;101933.47;5094814;28;8791;-62
2021/01/01 03:59:40;;;;;;;;;2.00;1.00;21.20;73.60;;;19.81;53.94;101932.63;5094930;28;8839;-62
2021/01/01 04:02:07;;;;;;;;;2.00;1.20;21.10;73.70;;;19.78;53.76;101916.81;5085847;28;8875;-62
2021/01/01 04:04:34;;;;;;;;;6.25;6.00;21.10;73.60;;;19.80;55.20;101922.88;5092042;28;8799;-61
2021/01/01 04:07:01;;;;;;;;;16.50;16.25;21.30;74.40;;;19.85;56.10;101917.97;5094623;28;8804;-61
2021/01/01 04:09:27;;;;;;;;;14.75;12.25;21.10;74.10;;;19.85;54.55;101917.97;5095052;28;8795;-61
2021/01/01 04:11:54;;;;;;;;;13.75;13.75;21.20;73.10;;;19.83;53.52;101923.47;5094081;28;8772;-61
2021/01/01 04:14:21;;;;;;;;;10.75;10.50;21.20;73.10;;;19.82;53.26;101913.72;5090368;28;8824;-61
2021/01/01 04:16:48;;;;;;;;;13.25;13.25;21.10;73.20;;;19.82;53.52;101919.09;5095117;28;8788;-61
2021/01/01 04:19:15;;;;;;;;;15.25;14.50;21.10;73.20;;;19.81;53.49;101916.53;5091423;28;8831;-61
2021/01/01 04:21:51;;;;;;;;;14.25;13.00;21.00;73.20;;;19.78;54.03;101917.66;5094528;28;8809;-61
2021/01/01 04:24:19;;;;;;;;;19.75;18.25;21.00;73.30;;;19.77;53.49;101913.28;5092482;28;8791;-61
2021/01/01 04:26:46;;;;;;;;;22.50;21.50;20.80;73.30;;;19.77;54.44;101904.38;5092787;28;8788;-61
2021/01/01 04:29:13;;;;;;;;;39.25;33.25;21.00;73.40;;;19.75;53.61;101898.31;5092987;28;8803;-61
2021/01/01 04:31:40;;;;;;;;;44.75;36.50;20.90;73.50;;;19.75;53.86;101906.34;5090226;28;8793;-61
2021/01/01 04:34:08;;;;;;;;;41.75;35.00;20.80;73.50;;;19.73;55.73;101903.78;5089538;28;8969;-61
2021/01/01 04:36:36;;;;;;;;;49.40;42.40;21.00;73.70;;;19.70;53.79;101904.91;5087852;28;8816;-61
2021/01/01 04:39:05;;;;;;;;;52.40;45.00;20.90;73.70;;;19.70;54.59;101910.28;5092748;28;8816;-61
2021/01/01 04:41:39;;;;;;;;;60.00;49.80;20.90;73.80;;;19.67;55.44;101907.88;5092758;28;8760;-61
2021/01/01 04:44:07;;;;;;;;;59.00;48.20;20.90;73.80;;;19.65;54.67;101904.44;5091561;28;8788;-61
2021/01/01 04:46:38;;;;;;;;;62.20;50.60;20.80;73.80;;;19.64;55.50;101913.47;5094073;28;8814;-61
2021/01/01 04:49:05;;;;;;;;;59.00;48.60;21.10;74.00;;;19.63;53.36;101916.28;5094105;28;8872;-61
2021/01/01 04:51:32;;;;;;;;;55.40;46.00;20.80;73.30;;;19.59;54.76;101921.06;5093464;28;8780;-61
2021/01/01 04:54:02;;;;;;;;;57.80;47.60;20.70;74.40;;;19.62;54.89;101923.47;5091775;28;8768;-61
2021/01/01 04:56:28;;;;;;;;;60.00;48.60;20.90;74.40;;;19.63;55.22;101925.16;5093310;28;8898;-61
2021/01/01 04:58:56;;;;;;;;;58.60;46.80;20.90;73.80;;;19.64;55.15;101934.03;5093259;28;8957;-61
2021/01/01 05:01:26;;;;;;;;;55.80;45.80;20.90;73.40;;;19.64;54.64;101931.34;5075979;28;8800;-61
2021/01/01 05:03:52;;;;;;;;;49.40;43.00;20.90;73.50;;;19.63;55.33;101937.72;5091795;28;8939;-60
2021/01/01 05:06:33;;;;;;;;;56.00;46.80;20.80;73.50;;;19.61;54.81;101935.16;5094156;28;8772;-61
2021/01/01 05:09:00;;;;;;;;;50.60;42.40;20.70;73.30;;;19.59;54.54;101934.47;5093974;28;9611;-61
2021/01/01 05:11:27;;;;;;;;;54.00;46.00;20.80;73.50;;;19.58;53.78;101932.75;5092515;28;8787;-61
2021/01/01 05:14:06;;;;;;;;;55.40;46.40;20.70;73.40;;;19.57;53.92;101933.75;5094218;28;8804;-61
2021/01/01 05:16:33;;;;;;;;;56.00;45.80;21.00;73.80;;;19.58;54.34;101931.91;5093401;28;8887;-61
2021/01/01 05:19:11;;;;;;;;;54.20;46.20;20.80;73.70;;;19.55;54.85;101949.09;5093900;28;9552;-61
2021/01/01 05:21:38;;;;;;;;;55.20;46.00;20.60;73.60;;;19.54;54.47;101944.72;5077302;28;8784;-61
2021/01/01 05:24:07;;;;;;;;;50.60;41.80;20.60;73.70;;;19.53;55.03;101946.53;5093364;28;8812;-61
2021/01/01 05:26:34;;;;;;;;;57.80;47.80;20.70;73.80;;;19.52;55.74;101933.28;5096744;28;8826;-61
2021/01/01 05:29:07;;;;;;;;;50.00;42.20;20.70;73.80;;;19.48;54.07;101934.50;5105457;28;8811;-61
2021/01/01 05:31:39;;;;;;;;;50.80;40.40;20.50;74.00;;;19.49;54.71;101941.59;5093052;28;8776;-61
2021/01/01 05:34:09;;;;;;;;;40.40;35.00;20.70;74.30;;;19.49;54.24;101938.91;5077697;28;9509;-61
2021/01/01 05:36:42;;;;;;;;;46.60;39.80;20.70;73.50;;;19.53;54.93;101943.84;5087942;28;8822;-61
2021/01/01 05:39:14;;;;;;;;;39.00;36.00;20.80;73.60;;;19.52;54.83;101954.72;5090922;28;8826;-61
2021/01/01 05:41:47;;;;;;;;;43.50;38.25;20.80;73.30;;;19.53;54.42;101951.91;5091923;28;8780;-61
2021/01/01 05:44:19;;;;;;;;;42.75;37.25;20.90;73.30;;;19.50;54.97;101952.16;5089680;28;8791;-61
2021/01/01 05:47:10;;;;;;;;;41.60;36.60;20.70;73.50;;;19.47;53.28;101949.75;5093060;28;8791;-61
2021/01/01 05:49:40;;;;;;;;;41.00;36.50;20.70;73.50;;;19.49;54.05;101946.94;5072463;28;8827;-61
2021/01/01 05:52:23;;;;;;;;;36.00;33.25;20.80;73.80;;;19.50;54.65;101948.63;5086225;28;8786;-61
2021/01/01 05:54:59;;;;;;;;;31.00;30.00;20.60;73.60;;;19.50;54.78;101945.97;5084933;28;8876;-62
2021/01/01 05:57:38;;;;;;;;;25.50;24.00;20.60;73.20;;;19.49;53.74;101941.59;5091081;28;8803;-61
2021/01/01 06:00:10;;;;;;;;;28.75;26.75;20.90;73.50;;;19.48;53.59;101938.03;5092767;28;8934;-61
2021/01/01 06:02:39;;;;;;;;;34.00;31.50;20.70;73.50;;;19.49;53.58;101938.91;5079527;28;9621;-62
2021/01/01 06:05:12;;;;;;;;;29.00;27.50;20.60;73.80;;;19.45;53.83;101932.94;5081578;28;8792;-61
2021/01/01 06:07:42;;;;;;;;;26.25;25.25;20.60;74.00;;;19.43;53.94;101948.31;5079186;28;8870;-62
2021/01/01 06:10:11;;;;;;;;;28.00;26.75;20.50;74.10;;;19.42;54.05;101938.56;5093923;28;8802;-63
2021/01/01 06:12:39;;;;;;;;;29.75;28.25;20.50;74.20;;;19.42;53.99;101943.09;5084300;28;8794;-61
2021/01/01 06:15:09;;;;;;;;;27.00;25.75;20.30;74.30;;;19.40;54.25;101943.22;5074089;28;8782;-61
2021/01/01 06:17:51;;;;;;;;;27.50;26.00;20.40;74.50;;;19.39;54.31;101936.16;5088663;28;8815;-61
2021/01/01 06:20:23;;;;;;;;;27.25;26.75;20.40;74.50;;;19.39;54.25;101932.66;5089715;28;8815;-62
2021/01/01 06:23:08;;;;;;;;;24.50;23.00;20.40;74.60;;;19.36;54.22;101933.75;5091113;28;8791;-61
2021/01/01 06:25:35;;;;;;;;;23.25;23.25;20.60;74.80;;;19.36;54.32;101932.88;5089369;28;8776;-61
2021/01/01 06:28:03;;;;;;;;;21.50;21.00;20.40;74.70;;;19.33;54.34;101936.66;5089733;28;8756;-61
2021/01/01 06:30:33;;;;;;;;;22.75;21.75;20.40;74.60;;;19.33;54.33;101943.88;5093477;28;8876;-60
2021/01/01 06:33:07;;;;;;;;;24.50;22.50;20.50;74.70;;;19.32;54.36;101932.31;5091492;28;8846;-61
2021/01/01 06:35:43;;;;;;;;;27.50;26.00;20.20;74.60;;;19.31;54.34;101938.66;5070012;28;9463;-61
2021/01/01 06:38:10;;;;;;;;;23.00;22.25;20.40;74.70;;;19.28;54.50;101936.22;5097321;28;8783;-61
2021/01/01 06:40:38;;;;;;;;;20.25;20.00;20.40;74.70;;;19.27;54.51;101940.72;5096799;28;8977;-61
2021/01/01 06:43:07;;;;;;;;;17.75;15.50;20.30;74.70;;;19.26;54.59;101943.56;5070992;28;8796;-60
2021/01/01 06:45:48;;;;;;;;;23.25;22.50;20.20;74.80;;;19.25;54.58;101950.72;5089535;28;8816;-61
2021/01/01 06:48:37;;;;;;;;;20.25;19.00;20.40;74.90;;;19.23;54.66;101947.34;5091217;28;8814;-62
2021/01/01 06:51:12;;;;;;;;;23.00;21.25;20.30;74.90;;;19.23;54.98;101950.03;5093376;28;8783;-62
2021/01/01 06:53:40;;;;;;;;;19.25;18.25;20.30;75.00;;;19.21;54.68;101956.44;5093923;28;8872;-61
2021/01/01 06:56:12;;;;;;;;;20.50;20.25;20.30;74.90;;;19.20;54.71;101952.94;5089929;28;9479;-61
2021/01/01 06:58:39;;;;;;;;;22.25;21.50;20.10;74.80;;;19.20;54.68;101955.59;5094431;28;8841;-61
2021/01/01 07:01:19;;;;;;;;;19.00;19.00;20.40;75.00;;;19.19;54.69;101940.53;5094277;28;8846;-62
2021/01/01 07:03:45;;;;;;;;;20.00;18.00;20.20;74.90;;;19.16;54.78;101930.06;5097566;28;8834;-61
2021/01/01 07:06:12;;;;;;;;;15.25;14.00;20.30;74.90;;;19.16;54.52;101940.78;5096573;28;9485;-62
2021/01/01 07:08:42;;;;;;;;;16.00;16.00;20.20;74.80;;;19.16;54.53;101953.31;5094623;28;8912;-60
2021/01/01 07:11:11;;;;;;;;;20.75;20.25;20.20;74.80;;;19.14;55.60;101955.28;5087838;28;8850;-63
2021/01/01 07:13:53;;;;;;;;;21.25;16.50;20.30;75.90;;;19.13;55.33;101946.38;5089416;28;8917;-62
2021/01/01 07:16:24;;;;;;;;;21.75;18.00;20.00;74.90;;;19.11;54.86;101939.47;5094624;28;8795;-62
2021/01/01 07:18:53;;;;;;;;;18.25;18.00;20.20;74.80;;;19.12;54.72;101952.72;5090015;28;8891;-63
2021/01/01 07:21:20;;;;;;;;;14.75;13.50;20.20;74.70;;;19.09;54.56;101942.28;5085692;28;8787;-62
2021/01/01 07:23:48;;;;;;;;;16.75;16.50;20.30;74.90;;;19.09;54.66;101942.28;5072606;28;8807;-63
2021/01/01 07:26:17;;;;;;;;;15.25;14.75;20.30;75.00;;;19.09;54.77;101942.28;5074281;28;8929;-60
2021/01/01 07:28:47;;;;;;;;;13.75;13.25;20.10;75.00;;;19.07;55.14;101941.56;5084073;28;9516;-63
2021/01/01 07:31:19;;;;;;;;;17.00;17.00;20.00;75.00;;;19.06;54.88;101934.50;5084479;28;8846;-61
2021/01/01 07:33:48;;;;;;;;;17.00;16.50;20.00;75.00;;;19.05;55.02;101940.81;5088664;28;8788;-61
2021/01/01 07:36:16;;;;;;;;;17.50;16.25;20.10;74.90;;;19.04;54.88;101939.97;5086183;28;8826;-61
2021/01/01 07:38:46;;;;;;;;;17.50;16.75;20.30;75.10;;;19.02;55.21;101952.66;5085652;28;8811;-62
2021/01/01 07:41:16;;;;;;;;;13.50;13.50;20.10;75.20;;;19.01;54.71;101947.44;5085658;28;9607;-62
2021/01/01 07:43:43;;;;;;;;;12.50;12.50;20.10;75.10;;;18.99;55.06;101947.56;5091456;28;8895;-63
2021/01/01 07:46:13;;;;;;;;;15.00;12.75;20.10;75.00;;;18.98;54.77;101951.22;5092073;28;8926;-63
2021/01/01 07:48:40;;;;;;;;;12.50;11.75;20.10;75.00;;;18.97;54.81;101957.53;5094674;28;8802;-63
2021/01/01 07:51:09;;;;;;;;;12.75;12.50;20.00;74.90;;;18.95;54.92;101945.25;5075811;28;8850;-63
2021/01/01 07:53:38;;;;;;;;;15.25;14.00;19.80;74.80;;;18.93;54.78;101937.38;5090033;28;8811;-63
2021/01/01 07:56:08;;;;;;;;;13.00;13.00;20.20;75.10;;;18.93;54.98;101941.84;5091394;28;8803;-63
2021/01/01 07:58:37;;;;;;;;;13.00;13.00;20.00;74.90;;;18.92;54.85;101937.47;5088458;28;8800;-63
2021/01/01 08:01:10;;;;;;;;;11.75;11.00;20.00;75.00;;;18.91;54.86;101938.47;5088754;28;8808;-63
2021/01/01 08:03:39;;;;;;;;;12.25;12.25;20.00;75.00;;;18.90;55.26;101939.44;5086954;28;8804;-62
2021/01/01 08:06:09;;;;;;;;;10.75;9.50;20.10;75.10;;;18.90;55.06;101944.78;5086619;28;8841;-63
2021/01/01 08:08:37;;;;;;;;;13.50;13.25;20.00;75.00;;;18.86;55.00;101939.69;5087470;28;8800;-63
2021/01/01 08:11:07;;;;;;;;;13.75;13.25;20.10;75.10;;;18.87;55.13;101938.69;5077667;28;8821;-63
2021/01/01 08:13:35;;;;;;;;;7.00;7.00;20.00;75.10;;;18.86;55.35;101947.72;5087750;28;8837;-63
2021/01/01 08:16:13;;;;;;;;;11.50;8.00;20.00;75.20;;;18.82;55.13;101945.41;5086315;28;8779;-63
2021/01/01 08:18:41;;;;;;;;;9.00;8.75;19.90;75.20;;;18.81;55.05;101938.38;5070990;28;8833;-63
2021/01/01 08:21:08;;;;;;;;;4.25;4.25;19.90;75.30;;;18.77;55.03;101934.25;5085864;28;8827;-63
2021/01/01 08:24:02;;;;;;;;;11.25;11.25;19.80;75.50;;;18.77;54.38;101929.72;5083329;28;10105;-63
2021/01/01 08:26:33;;;;;;;;;12.50;10.00;19.80;74.70;;;18.74;53.67;101927.28;5074436;28;8802;-63
2021/01/01 08:29:01;;;;;;;;;7.25;6.50;19.70;73.90;;;18.69;52.91;101932.16;5090565;28;8796;-63
2021/01/01 08:31:28;;;;;;;;;5.50;5.50;19.60;73.20;;;18.66;52.17;101927.91;5094483;28;8943;-63
2021/01/01 08:33:55;;;;;;;;;7.00;7.00;19.60;72.80;;;18.64;51.85;101926.34;5070429;28;8800;-63
2021/01/01 08:36:34;;;;;;;;;6.75;5.50;19.60;72.30;;;18.61;51.33;101921.25;5077847;28;8788;-63
2021/01/01 08:39:14;;;;;;;;;6.25;3.75;19.50;72.00;;;18.58;50.86;101919.66;5095237;28;8950;-62
2021/01/01 08:41:44;;;;;;;;;6.00;5.00;19.50;71.20;;;18.56;51.55;101910.06;5089122;28;9079;-62
2021/01/01 08:44:13;;;;;;;;;4.00;4.00;19.50;71.90;;;18.53;51.62;101908.50;5084011;28;8874;-61
2021/01/01 08:46:40;;;;;;;;;4.75;4.75;19.50;72.70;;;18.50;52.21;101924.81;5083031;28;8834;-62
2021/01/01 08:49:17;;;;;;;;;6.00;5.50;19.60;72.50;;;18.50;52.60;101919.44;5090056;28;8796;-62
2021/01/01 08:51:48;;;;;;;;;4.75;4.00;19.50;72.20;;;18.49;52.20;101915.06;5090130;28;8799;-61
2021/01/01 08:54:27;;;;;;;;;4.00;4.00;19.70;72.10;;;18.50;52.17;101923.97;5090862;28;8861;-61
2021/01/01 08:56:59;;;;;;;;;3.00;3.00;19.60;71.90;;;18.48;51.87;101923.22;5091934;28;8844;-62
2021/01/01 08:59:28;;;;;;;;;4.75;4.75;19.60;71.90;;;18.47;51.88;101919.72;5087679;28;8931;-61
2021/01/01 09:01:56;;;;;;;;;3.00;2.25;19.60;71.80;;;18.47;52.33;101924.19;5094782;28;8774;-61
2021/01/01 09:04:29;;;;;;;;;4.75;3.25;19.40;71.80;;;18.47;52.19;101938.44;5090438;28;8925;-62
2021/01/01 09:06:59;;;;;;;;;4.50;3.50;19.60;71.90;;;18.43;52.55;101943.16;5091163;28;8825;-62
2021/01/01 09:09:29;;;;;;;;;4.75;4.75;19.50;72.20;;;18.39;52.52;101933.72;5094840;28;8862;-61
2021/01/01 09:12:20;;;;;;;;;5.75;5.50;19.40;72.30;;;18.37;52.77;101935.66;5097927;28;8816;-62
2021/01/01 09:14:55;;;;;;;;;5.75;4.75;19.60;72.80;;;18.34;53.08;101938.59;5090733;28;8781;-61
2021/01/01 09:17:26;;;;;;;;;4.75;4.25;19.40;72.90;;;18.31;53.10;101928.09;5095615;28;8848;-62
2021/01/01 09:20:07;;;;;;;;;5.75;5.75;19.40;73.20;;;18.29;53.42;101932.72;5088192;28;8832;-62
2021/01/01 09:22:40;;;;;;;;;6.75;6.00;19.30;73.40;;;18.26;53.70;101932.13;5094067;28;8782;-60
2021/01/01 09:25:25;;;;;;;;;10.25;10.25;19.50;73.40;;;18.24;54.34;101932.25;5089749;28;8834;-66
2021/01/01 09:27:53;;;;;;;;;10.75;9.75;19.30;73.60;;;18.22;54.29;101926.19;5089923;28;8815;-66
2021/01/01 09:30:27;;;;;;;;;10.00;8.00;19.30;73.60;;;18.19;54.21;101926.41;5073348;28;8815;-66
2021/01/01 09:33:00;;;;;;;;;10.25;7.75;19.30;73.80;;;18.16;54.77;101932.00;5091500;28;8937;-67
2021/01/01 09:35:29;;;;;;;;;9.75;7.25;19.30;73.80;;;18.13;54.24;101932.25;5086657;28;8796;-66
2021/01/01 09:37:59;;;;;;;;;8.50;6.25;19.00;73.80;;;18.12;54.54;101933.25;5088000;28;9575;-66
2021/01/01 09:40:29;;;;;;;;;5.75;5.50;19.20;74.00;;;18.10;54.84;101935.19;5079881;28;8842;-67
2021/01/01 09:43:00;;;;;;;;;7.75;7.75;19.10;74.00;;;18.07;54.57;101938.13;5093009;28;9608;-66
2021/01/01 09:45:27;;;;;;;;;6.50;6.50;19.20;74.20;;;18.04;54.72;101949.03;5095193;28;8804;-66
2021/01/01 09:47:54;;;;;;;;;7.75;6.25;19.20;74.30;;;18.03;54.93;101945.50;5094756;28;8787;-66
2021/01/01 09:50:21;;;;;;;;;5.50;5.50;19.20;74.40;;;18.02;54.93;101948.31;5095619;28;8822;-66
2021/01/01 09:52:48;;;;;;;;;6.00;6.00;19.20;74.50;;;17.99;54.97;101941.41;5088159;28;8774;-66
2021/01/01 09:55:14;;;;;;;;;6.00;4.75;19.20;74.60;;;17.98;55.21;101942.34;5092669;28;8792;-66
2021/01/01 09:57:41;;;;;;;;;4.25;4.25;19.10;74.60;;;17.95;55.13;101943.44;5090047;28;10618;-66
2021/01/01 10:00:12;;;;;;;;;6.25;5.25;19.10;74.70;;;17.94;55.11;101952.44;5097464;28;8819;-66
2021/01/01 10:02:39;;;;;;;;;5.00;4.25;19.10;74.80;;;17.91;55.15;101952.69;5091096;28;8815;-66
2021/01/01 10:05:08;;;;;;;;;3.25;2.75;19.00;74.80;;;17.89;55.42;101949.28;5102682;28;8805;-66
2021/01/01 10:07:35;;;;;;;;;5.00;4.50;19.00;74.80;;;17.89;55.55;101957.31;5098907;28;8873;-66
2021/01/01 10:10:06;;;;;;;;;4.50;4.50;19.00;74.90;;;17.85;55.76;101949.63;5094472;28;9638;-66
2021/01/01 10:12:33;;;;;;;;;4.75;4.75;18.80;74.80;;;17.83;55.70;101941.72;5062043;28;8788;-67
2021/01/01 10:15:00;;;;;;;;;4.00;4.00;19.00;75.00;;;17.81;55.64;101943.69;5090011;28;8795;-67
2021/01/01 10:17:28;;;;;;;;;5.25;4.00;19.00;75.00;;;17.79;55.71;101935.78;5092186;28;8772;-67
2021/01/01 10:19:56;;;;;;;;;6.00;6.00;19.00;75.10;;;17.78;56.05;101935.84;5096300;28;8813;-66
2021/01/01 10:22:23;;;;;;;;;3.75;3.50;18.90;75.10;;;17.76;55.94;101922.63;5098805;28;9527;-65